MUCF/CFG METAR and TAF weather

Enter ICAO airport designator
Station Type Date Time Source
MUCF METAR 2019/08/22 19:50 UTC NOAA

MUCF 221950Z 27009KT 250V330 9999 SCT020 30/23 Q1014


Station Type Date Time Source
MUCF Decoded METAR 2019/08/22 19:50 UTC NOAA

Station name not available
Aug 22, 2019 - 03:50 PM EDT / 2019.08.22 1950 UTC
Wind: from the W (270 degrees) at 10 MPH (9 KT) (direction variable):0
Visibility: greater than 7 mile(s):0
Sky conditions: partly cloudy
Temperature: 86 F (30 C)
Heat index: 93.4 F (34.1 C):1
Dew Point: 73 F (23 C)
Relative Humidity: 66%
Pressure (altimeter): 29.94 in. Hg (1014 hPa)
ob: MUCF 221950Z 27009KT 250V330 9999 SCT020 30/23 Q1014
cycle: 20

Station Type Date Time Source
MUCF TAF 2019/08/22 18:03 UTC NOAA

MUCF 221700Z 2218/2306 VRB03KT 9000 BKN060
TEMPO 2218/2224 VRB10KT 3000 TSRA SCT020CB BKN040

Example: see airport list